createdAt,value
2018-11-05T00:00:20.073Z,70.20
2018-11-05T00:00:54.523Z,59.98
2018-11-05T00:01:28.753Z,63.98
2018-11-05T00:02:02.900Z,67.62
2018-11-05T00:02:37.013Z,67.62
2018-11-05T00:03:11.217Z,69.58
2018-11-05T00:03:45.357Z,72.50
2018-11-05T00:04:19.536Z,62.73
2018-11-05T00:04:53.979Z,70.08
2018-11-05T00:05:28.366Z,58.42
2018-11-05T00:06:02.539Z,63.70
2018-11-05T00:06:36.625Z,71.17
2018-11-05T00:07:10.774Z,63.85
2018-11-05T00:07:44.857Z,70.70
2018-11-05T00:08:18.989Z,69.27
2018-11-05T00:08:53.109Z,66.30
2018-11-05T00:09:27.219Z,64.87
2018-11-05T00:10:02.004Z,67.60
2018-11-05T00:10:36.613Z,63.30
2018-11-05T00:11:10.702Z,65.90
2018-11-05T00:11:44.801Z,69.00
2018-11-05T00:12:19.251Z,67.50
2018-11-05T00:12:53.389Z,71.92
2018-11-05T00:13:27.837Z,71.87
2018-11-05T00:14:02.025Z,71.90
2018-11-05T00:14:36.845Z,62.70
2018-11-05T00:15:11.268Z,68.83
2018-11-05T00:15:45.722Z,75.42
2018-11-05T00:16:21.411Z,69.90
2018-11-05T00:16:55.813Z,67.82
2018-11-05T00:17:30.289Z,59.63
2018-11-05T00:18:04.847Z,62.95
2018-11-05T00:18:38.964Z,68.97
2018-11-05T00:19:13.471Z,64.62
2018-11-05T00:19:47.590Z,64.50
2018-11-05T00:20:21.887Z,75.42
2018-11-05T00:20:56.327Z,85.92
2018-11-05T00:21:30.757Z,70.80
2018-11-05T00:22:05.369Z,70.85
2018-11-05T00:22:40.037Z,64.03
2018-11-05T00:23:14.485Z,74.25
2018-11-05T00:23:48.946Z,70.55
2018-11-05T00:24:23.085Z,78.65
2018-11-05T00:24:57.193Z,73.10
2018-11-05T00:25:31.312Z,67.97
2018-11-05T00:26:05.699Z,69.03
2018-11-05T00:26:39.565Z,72.33
2018-11-05T00:27:13.394Z,66.60
2018-11-05T00:27:47.533Z,73.45
2018-11-05T00:28:22.019Z,69.92
2018-11-05T00:28:56.111Z,70.35
2018-11-05T00:29:30.551Z,76.97
2018-11-05T00:30:04.530Z,63.97
2018-11-05T00:30:38.634Z,65.08
2018-11-05T00:31:12.745Z,86.72
2018-11-05T00:31:46.918Z,72.92
2018-11-05T00:32:21.068Z,66.45
2018-11-05T00:32:55.245Z,76.17
2018-11-05T00:33:29.375Z,77.12
2018-11-05T00:34:03.896Z,70.28
2018-11-05T00:34:37.732Z,60.40
2018-11-05T00:35:12.585Z,77.22
2018-11-05T00:35:46.685Z,76.15
2018-11-05T00:36:20.521Z,73.37
2018-11-05T00:36:54.631Z,75.20
2018-11-05T00:37:28.761Z,68.22
2018-11-05T00:38:03.251Z,69.25
2018-11-05T00:38:37.392Z,65.15
2018-11-05T00:39:12.532Z,72.97
2018-11-05T00:39:46.365Z,63.47
2018-11-05T00:40:20.833Z,75.60
2018-11-05T00:40:56.375Z,64.70
2018-11-05T00:41:30.673Z,73.75
2018-11-05T00:42:06.137Z,68.90
2018-11-05T00:42:41.053Z,67.37
2018-11-05T00:43:16.283Z,72.82
2018-11-05T00:43:50.767Z,66.12
2018-11-05T00:44:25.056Z,72.20
2018-11-05T00:44:59.753Z,67.82
2018-11-05T00:45:34.128Z,67.40
2018-11-05T00:46:10.312Z,69.03
2018-11-05T00:46:45.403Z,62.25
2018-11-05T00:47:19.709Z,67.30
2018-11-05T00:47:54.023Z,70.17
2018-11-05T00:48:28.927Z,67.05
2018-11-05T00:49:03.487Z,68.45
2018-11-05T00:49:37.448Z,67.80
2018-11-05T00:50:13.410Z,73.60
2018-11-05T00:50:48.051Z,68.87
2018-11-05T00:51:22.695Z,78.70
2018-11-05T00:51:56.994Z,63.73
2018-11-05T00:52:31.474Z,62.48
2018-11-05T00:53:05.953Z,66.07
2018-11-05T00:53:40.089Z,56.60
2018-11-05T00:54:14.254Z,70.22
2018-11-05T00:54:48.714Z,70.45
2018-11-05T00:55:23.353Z,59.75
2018-11-05T00:55:57.585Z,73.67
2018-11-05T00:56:31.883Z,65.70
2018-11-05T00:57:06.933Z,71.28
2018-11-05T00:57:41.101Z,66.20
2018-11-05T00:58:14.972Z,65.30
2018-11-05T00:58:49.097Z,64.07
2018-11-05T00:59:23.537Z,64.42
2018-11-05T00:59:57.703Z,67.08
2018-11-05T01:00:31.805Z,65.37
2018-11-05T01:01:06.773Z,59.38
2018-11-05T01:01:41.570Z,71.75
2018-11-05T01:02:16.080Z,63.05
2018-11-05T01:02:50.251Z,62.30
2018-11-05T01:03:24.349Z,66.12
2018-11-05T01:03:58.213Z,64.80
2018-11-05T01:04:32.309Z,58.02
2018-11-05T01:05:07.526Z,63.17
2018-11-05T01:05:41.638Z,67.87
2018-11-05T01:06:16.113Z,68.25
2018-11-05T01:06:50.581Z,63.92
2018-11-05T01:07:25.032Z,78.17
2018-11-05T01:07:59.521Z,78.47
2018-11-05T01:08:33.640Z,69.67
2018-11-05T01:09:08.530Z,62.65
2018-11-05T01:09:42.626Z,68.02
2018-11-05T01:10:17.106Z,77.17
2018-11-05T01:10:51.429Z,78.60
2018-11-05T01:11:25.525Z,68.95
2018-11-05T01:11:59.633Z,75.40
2018-11-05T01:12:33.797Z,77.40
2018-11-05T01:13:07.909Z,77.47
2018-11-05T01:13:42.008Z,85.10
2018-11-05T01:14:16.151Z,75.78
2018-11-05T01:14:49.961Z,71.83
2018-11-05T01:15:23.815Z,72.43
2018-11-05T01:15:57.945Z,79.82
2018-11-05T01:16:31.819Z,77.00
2018-11-05T01:17:06.252Z,81.50
2018-11-05T01:17:40.601Z,88.17
2018-11-05T01:18:14.724Z,83.15
2018-11-05T01:18:49.238Z,85.50
2018-11-05T01:19:23.167Z,71.53
2018-11-05T01:19:57.044Z,84.93
2018-11-05T01:20:31.159Z,89.60
2018-11-05T01:21:06.621Z,76.55
2018-11-05T01:21:42.052Z,70.97
2018-11-05T01:22:17.378Z,78.78
2018-11-05T01:22:53.286Z,78.00
2018-11-05T01:23:27.662Z,74.00
2018-11-05T01:24:01.934Z,71.90
2018-11-05T01:24:35.979Z,78.13
2018-11-05T01:25:09.825Z,85.27
2018-11-05T01:25:43.647Z,77.20
2018-11-05T01:26:17.834Z,76.20
2018-11-05T01:26:52.018Z,74.65
2018-11-05T01:27:26.327Z,72.08
2018-11-05T01:28:00.612Z,78.23
2018-11-05T01:28:34.694Z,73.52
2018-11-05T01:29:08.917Z,87.97
2018-11-05T01:29:42.756Z,85.67
2018-11-05T01:30:16.860Z,88.87
2018-11-05T01:30:50.958Z,81.10
2018-11-05T01:31:25.125Z,80.33
2018-11-05T01:31:59.242Z,78.78
2018-11-05T01:32:33.346Z,80.20
2018-11-05T01:33:07.218Z,84.97
2018-11-05T01:33:41.382Z,88.77
2018-11-05T01:34:16.404Z,90.03
2018-11-05T01:34:50.549Z,75.35
2018-11-05T01:35:31.484Z,74.75
2018-11-05T01:36:05.598Z,72.40
2018-11-05T01:36:40.776Z,76.90
2018-11-05T01:37:15.275Z,78.67
2018-11-05T01:37:49.953Z,81.75
2018-11-05T01:38:24.203Z,77.72
2018-11-05T01:38:58.313Z,81.57
2018-11-05T01:39:32.390Z,78.40
2018-11-05T01:40:08.515Z,90.95
2018-11-05T01:40:42.961Z,85.57
2018-11-05T01:41:16.781Z,80.40
2018-11-05T01:41:51.052Z,77.78
2018-11-05T01:42:25.501Z,76.10
2018-11-05T01:42:59.653Z,80.77
2018-11-05T01:43:33.878Z,76.37
2018-11-05T01:44:08.072Z,84.60
2018-11-05T01:44:42.535Z,76.53
2018-11-05T01:45:21.345Z,77.35
2018-11-05T01:45:55.826Z,82.30
2018-11-05T01:46:30.436Z,77.40
2018-11-05T01:47:05.086Z,78.78
2018-11-05T01:47:41.290Z,76.35
2018-11-05T01:48:15.523Z,79.12
2018-11-05T01:48:50.487Z,80.70
2018-11-05T01:49:24.957Z,71.03
2018-11-05T01:50:00.887Z,75.72
2018-11-05T01:50:35.681Z,78.83
2018-11-05T01:51:09.901Z,78.47
2018-11-05T01:51:44.863Z,66.97
2018-11-05T01:52:19.493Z,81.10
2018-11-05T01:52:53.613Z,81.43
2018-11-05T01:53:28.153Z,72.20
2018-11-05T01:54:05.864Z,70.47
2018-11-05T01:54:40.513Z,70.80
2018-11-05T01:55:15.433Z,86.97
2018-11-05T01:55:50.421Z,74.37
2018-11-05T01:56:25.750Z,82.88
2018-11-05T01:57:00.021Z,80.50
2018-11-05T01:57:34.657Z,73.90
2018-11-05T01:58:10.520Z,72.45
2018-11-05T01:58:44.659Z,75.55
2018-11-05T01:59:18.761Z,74.22
2018-11-05T01:59:52.881Z,79.30
2018-11-05T02:00:27.791Z,77.50
2018-11-05T02:01:02.280Z,72.75
2018-11-05T02:01:36.384Z,80.30
2018-11-05T02:02:10.923Z,86.10
2018-11-05T02:02:45.630Z,71.43
2018-11-05T02:03:19.788Z,77.15
2018-11-05T02:03:53.975Z,73.10
2018-11-05T02:04:27.805Z,81.53
2018-11-05T02:05:01.803Z,76.80
2018-11-05T02:05:35.773Z,86.40
2018-11-05T02:06:09.902Z,84.97
2018-11-05T02:06:44.013Z,85.97
2018-11-05T02:07:18.177Z,86.85
2018-11-05T02:07:52.271Z,83.55
2018-11-05T02:08:26.413Z,90.57
2018-11-05T02:09:00.493Z,84.60
2018-11-05T02:09:34.572Z,81.22
2018-11-05T02:10:13.999Z,88.80
2018-11-05T02:10:49.615Z,74.37
2018-11-05T02:11:24.293Z,91.28
2018-11-05T02:11:58.395Z,94.67
2018-11-05T02:12:32.792Z,95.35
2018-11-05T02:13:07.055Z,87.95
2018-11-05T02:13:41.508Z,90.53
2018-11-05T02:14:16.088Z,85.55
2018-11-05T02:14:50.179Z,95.15
2018-11-05T02:15:24.624Z,99.03
2018-11-05T02:15:59.121Z,99.60
2018-11-05T02:16:33.559Z,94.15
2018-11-05T02:17:07.806Z,80.70
2018-11-05T02:17:43.907Z,93.35
2018-11-05T02:18:18.097Z,97.53
2018-11-05T02:18:52.248Z,93.40
2018-11-05T02:19:26.126Z,85.83
2018-11-05T02:20:00.623Z,96.72
2018-11-05T02:20:34.807Z,88.40
2018-11-05T02:21:09.259Z,87.60
2018-11-05T02:21:43.380Z,91.02
2018-11-05T02:22:17.505Z,97.97
2018-11-05T02:22:51.633Z,89.87
2018-11-05T02:23:25.794Z,89.52
2018-11-05T02:23:59.905Z,81.08
2018-11-05T02:24:34.051Z,99.50
2018-11-05T02:25:09.639Z,88.07
2018-11-05T02:25:50.421Z,95.87
2018-11-05T02:26:24.278Z,89.40
2018-11-05T02:26:58.433Z,97.35
2018-11-05T02:27:33.050Z,84.85
2018-11-05T02:28:07.473Z,88.87
2018-11-05T02:28:41.889Z,95.85
2018-11-05T02:29:15.989Z,90.53
2018-11-05T02:29:50.091Z,99.22
2018-11-05T02:30:24.192Z,91.22
2018-11-05T02:30:58.627Z,91.22
2018-11-05T02:31:32.746Z,94.22
2018-11-05T02:32:07.294Z,100.53
2018-11-05T02:32:41.440Z,104.05
2018-11-05T02:33:15.859Z,109.90
2018-11-05T02:33:49.974Z,97.62
2018-11-05T02:34:24.077Z,92.85
2018-11-05T02:34:58.174Z,93.95
2018-11-05T02:35:32.286Z,100.35
2018-11-05T02:36:07.086Z,102.38
2018-11-05T02:36:41.186Z,101.53
2018-11-05T02:37:15.385Z,100.18
2018-11-05T02:37:49.550Z,91.97
2018-11-05T02:38:23.691Z,93.33
2018-11-05T02:38:58.247Z,104.10
2018-11-05T02:39:32.413Z,93.77
2018-11-05T02:40:09.221Z,106.72
2018-11-05T02:40:43.018Z,98.57
2018-11-05T02:41:16.838Z,110.10
2018-11-05T02:41:51.012Z,96.40
2018-11-05T02:42:25.200Z,97.47
2018-11-05T02:42:59.294Z,95.80
2018-11-05T02:43:33.447Z,109.60
2018-11-05T02:44:07.901Z,98.50
2018-11-05T02:44:42.002Z,108.17
2018-11-05T02:45:17.674Z,104.53
2018-11-05T02:45:51.523Z,100.80
2018-11-05T02:46:25.627Z,112.75
2018-11-05T02:47:00.321Z,103.87
2018-11-05T02:47:34.782Z,108.20
2018-11-05T02:48:09.119Z,101.85
2018-11-05T02:48:43.481Z,86.40
2018-11-05T02:49:17.793Z,91.22
2018-11-05T02:49:51.892Z,97.70
2018-11-05T02:50:26.047Z,108.42
2018-11-05T02:51:00.193Z,106.83
2018-11-05T02:51:34.361Z,97.87
2018-11-05T02:52:08.547Z,100.33
2018-11-05T02:52:43.926Z,108.45
2018-11-05T02:53:18.162Z,109.77
2018-11-05T02:53:52.004Z,97.67
2018-11-05T02:54:25.841Z,97.33
2018-11-05T02:54:59.673Z,107.00
2018-11-05T02:55:33.834Z,94.10
2018-11-05T02:56:07.892Z,100.33
2018-11-05T02:56:41.722Z,102.03
2018-11-05T02:57:15.868Z,97.67
2018-11-05T02:57:50.043Z,103.77
2018-11-05T02:58:27.056Z,99.33
2018-11-05T02:59:00.885Z,98.53
2018-11-05T02:59:34.979Z,102.92
2018-11-05T03:00:12.692Z,101.27
2018-11-05T03:00:46.800Z,101.72
2018-11-05T03:01:20.914Z,99.60
2018-11-05T03:01:55.053Z,109.52
2018-11-05T03:02:29.187Z,99.50
2018-11-05T03:03:03.404Z,92.53
2018-11-05T03:03:37.710Z,103.47
2018-11-05T03:04:11.566Z,98.77
2018-11-05T03:04:45.618Z,94.23
2018-11-05T03:05:20.257Z,104.83
2018-11-05T03:05:54.352Z,109.25
2018-11-05T03:06:28.801Z,96.82
2018-11-05T03:07:03.268Z,95.62
2018-11-05T03:07:37.366Z,103.12
2018-11-05T03:08:12.006Z,99.67
2018-11-05T03:08:46.074Z,99.00
2018-11-05T03:09:20.200Z,109.48
2018-11-05T03:09:54.160Z,99.37
2018-11-05T03:10:28.610Z,99.15
2018-11-05T03:11:02.754Z,91.87
2018-11-05T03:11:37.085Z,100.12
2018-11-05T03:12:11.514Z,90.22
2018-11-05T03:12:46.285Z,87.30
2018-11-05T03:13:20.414Z,91.12
2018-11-05T03:13:54.509Z,97.92
2018-11-05T03:14:28.597Z,96.90
2018-11-05T03:15:02.761Z,95.55
2018-11-05T03:15:37.037Z,92.70
2018-11-05T03:16:11.482Z,96.28
2018-11-05T03:16:45.321Z,105.67
2018-11-05T03:17:20.393Z,102.63
2018-11-05T03:17:54.545Z,95.43
2018-11-05T03:18:28.982Z,99.03
2018-11-05T03:19:03.514Z,95.62
2018-11-05T03:19:37.938Z,96.10
2018-11-05T03:20:13.370Z,88.95
2018-11-05T03:20:47.801Z,90.12
2018-11-05T03:21:22.290Z,93.97
2018-11-05T03:21:56.384Z,100.75
2018-11-05T03:22:30.541Z,93.73
2018-11-05T03:23:05.501Z,92.10
2018-11-05T03:23:40.328Z,102.35
2018-11-05T03:24:14.456Z,91.55
2018-11-05T03:24:48.561Z,94.97
2018-11-05T03:25:22.380Z,93.10
2018-11-05T03:25:56.256Z,110.47
2018-11-05T03:26:30.936Z,97.93
2018-11-05T03:27:05.633Z,94.55
2018-11-05T03:27:40.064Z,101.15
2018-11-05T03:28:14.198Z,100.58
2018-11-05T03:28:48.036Z,96.40
2018-11-05T03:29:21.869Z,92.43
2018-11-05T03:29:56.302Z,93.03
2018-11-05T03:30:30.517Z,100.00
2018-11-05T03:31:04.945Z,97.47
2018-11-05T03:31:38.780Z,101.60
2018-11-05T03:32:12.901Z,105.52
2018-11-05T03:32:47.378Z,96.23
2018-11-05T03:33:21.749Z,93.83
2018-11-05T03:33:55.956Z,87.53
2018-11-05T03:34:30.452Z,98.00
2018-11-05T03:35:05.036Z,101.17
2018-11-05T03:35:39.801Z,101.78
2018-11-05T03:36:13.830Z,93.57
2018-11-05T03:36:47.945Z,94.65
2018-11-05T03:37:21.779Z,99.13
2018-11-05T03:37:55.949Z,99.03
2018-11-05T03:38:30.035Z,96.40
2018-11-05T03:39:05.443Z,119.50
2018-11-05T03:39:39.500Z,102.90
2018-11-05T03:40:13.834Z,98.77
2018-11-05T03:40:47.932Z,97.88
2018-11-05T03:41:21.742Z,96.73
2018-11-05T03:41:56.737Z,99.28
2018-11-05T03:42:30.844Z,102.75
2018-11-05T03:43:05.332Z,105.45
2018-11-05T03:43:39.156Z,100.53
2018-11-05T03:44:13.291Z,99.92
2018-11-05T03:44:47.387Z,102.92
2018-11-05T03:45:21.945Z,112.37
2018-11-05T03:45:56.164Z,103.65
2018-11-05T03:46:30.286Z,117.60
2018-11-05T03:47:04.455Z,105.73
2018-11-05T03:47:38.464Z,106.43
2018-11-05T03:48:12.631Z,109.90
2018-11-05T03:48:46.481Z,116.57
2018-11-05T03:49:20.388Z,102.10
2018-11-05T03:49:54.259Z,113.40
2018-11-05T03:50:28.677Z,117.22
2018-11-05T03:51:03.101Z,119.00
2018-11-05T03:51:37.513Z,111.47
2018-11-05T03:52:12.009Z,116.43
2018-11-05T03:52:46.684Z,113.95
2018-11-05T03:53:20.789Z,116.12
2018-11-05T03:53:54.858Z,120.05
2018-11-05T03:55:09.729Z,110.97
2018-11-05T03:55:43.842Z,112.62
2018-11-05T03:56:18.293Z,105.45
2018-11-05T03:56:52.435Z,113.08
2018-11-05T03:57:26.561Z,110.40
2018-11-05T03:58:01.768Z,117.77
2018-11-05T03:58:35.902Z,103.17
2018-11-05T03:59:10.324Z,117.10
2018-11-05T03:59:44.177Z,116.57
2018-11-05T04:00:18.570Z,118.80
2018-11-05T04:00:52.791Z,114.53
2018-11-05T04:01:26.934Z,132.63
2018-11-05T04:02:00.917Z,126.27
2018-11-05T04:02:35.431Z,124.87
2018-11-05T04:03:09.646Z,112.13
2018-11-05T04:03:43.965Z,130.73
2018-11-05T04:04:18.388Z,120.70
2018-11-05T04:04:52.832Z,129.05
2018-11-05T04:05:26.678Z,122.00
2018-11-05T04:06:00.762Z,112.80
2018-11-05T04:06:34.605Z,124.27
2018-11-05T04:07:09.034Z,123.67
2018-11-05T04:07:43.137Z,122.00
2018-11-05T04:08:16.957Z,128.23
2018-11-05T04:08:50.793Z,128.87
2018-11-05T04:09:25.592Z,137.77
2018-11-05T04:09:59.724Z,130.75
2018-11-05T04:10:34.169Z,139.40
2018-11-05T04:11:08.219Z,130.17
2018-11-05T04:11:42.341Z,139.52
2018-11-05T04:12:16.528Z,131.18
2018-11-05T04:12:50.704Z,136.60
2018-11-05T04:13:24.816Z,120.15
2018-11-05T04:13:58.898Z,138.45
2018-11-05T04:14:33.021Z,136.70
2018-11-05T04:15:07.511Z,133.97
2018-11-05T04:15:41.793Z,132.35
2018-11-05T04:16:15.949Z,126.70
2018-11-05T04:16:50.040Z,132.60
2018-11-05T04:17:24.146Z,136.75
2018-11-05T04:17:58.240Z,143.07
2018-11-05T04:18:32.350Z,140.97
2018-11-05T04:19:06.357Z,145.33
2018-11-05T04:19:40.794Z,136.82
2018-11-05T04:20:15.252Z,140.13
2018-11-05T04:20:49.397Z,146.85
2018-11-05T04:21:28.241Z,144.10
2018-11-05T04:22:02.332Z,151.12
2018-11-05T04:22:36.780Z,140.50
2018-11-05T04:23:10.885Z,147.40
2018-11-05T04:23:44.969Z,132.55
2018-11-05T04:24:19.069Z,146.30
2018-11-05T04:24:53.487Z,156.30
2018-11-05T04:25:27.633Z,132.27
2018-11-05T04:26:01.745Z,139.75
2018-11-05T04:26:36.159Z,148.70
2018-11-05T04:27:11.261Z,129.20
2018-11-05T04:27:45.479Z,136.12
2018-11-05T04:28:19.685Z,150.85
2018-11-05T04:28:53.916Z,139.35
2018-11-05T04:29:28.009Z,137.97
2018-11-05T04:30:02.129Z,140.32
2018-11-05T04:30:36.288Z,134.22
2018-11-05T04:31:10.389Z,132.43
2018-11-05T04:31:44.860Z,140.57
2018-11-05T04:32:19.321Z,142.95
2018-11-05T04:32:53.409Z,144.37
2018-11-05T04:33:27.529Z,139.52
2018-11-05T04:34:01.629Z,139.72
2018-11-05T04:34:35.730Z,144.62
2018-11-05T04:35:10.634Z,136.90
2018-11-05T04:35:44.755Z,136.12
2018-11-05T04:36:18.841Z,141.30
2018-11-05T04:36:53.293Z,136.25
2018-11-05T04:37:27.454Z,145.97
2018-11-05T04:38:01.547Z,143.75
2018-11-05T04:38:35.674Z,129.38
2018-11-05T04:39:15.258Z,131.43
2018-11-05T04:39:49.354Z,158.32
2018-11-05T04:40:23.436Z,143.07
2018-11-05T04:40:57.437Z,132.17
2018-11-05T04:41:31.577Z,138.37
2018-11-05T04:42:06.060Z,141.77
2018-11-05T04:42:40.674Z,136.30
2018-11-05T04:43:14.776Z,137.20
2018-11-05T04:43:48.883Z,126.15
2018-11-05T04:44:23.321Z,131.65
2018-11-05T04:44:57.421Z,131.75
2018-11-05T04:45:31.495Z,132.32
2018-11-05T04:46:06.401Z,138.65
2018-11-05T04:46:40.912Z,142.10
2018-11-05T04:47:15.697Z,139.50
2018-11-05T04:47:49.536Z,138.47
2018-11-05T04:48:23.635Z,138.75
2018-11-05T04:48:57.464Z,143.73
2018-11-05T04:49:31.641Z,139.22
2018-11-05T04:50:07.569Z,146.32
2018-11-05T04:50:41.674Z,132.57
2018-11-05T04:51:15.809Z,140.05
2018-11-05T04:51:50.226Z,141.75
2018-11-05T04:52:24.507Z,131.63
2018-11-05T04:52:58.766Z,133.47
2018-11-05T04:53:32.870Z,136.77
2018-11-05T04:54:09.069Z,137.15
2018-11-05T04:54:43.521Z,141.10
2018-11-05T04:55:17.926Z,142.80
2018-11-05T04:55:52.084Z,135.75
2018-11-05T04:56:26.525Z,145.62
2018-11-05T04:57:00.617Z,134.55
2018-11-05T04:57:34.721Z,131.50
2018-11-05T04:58:08.834Z,147.68
2018-11-05T04:58:43.560Z,137.68
2018-11-05T04:59:17.683Z,139.18
2018-11-05T04:59:51.772Z,150.07
2018-11-05T05:00:25.881Z,151.55
2018-11-05T05:00:59.979Z,145.25
2018-11-05T05:01:34.124Z,147.30
2018-11-05T05:02:08.231Z,141.75
2018-11-05T05:02:43.065Z,141.92
2018-11-05T05:03:17.554Z,155.52
2018-11-05T05:03:51.817Z,146.15
2018-11-05T05:04:25.637Z,155.77
2018-11-05T05:04:59.738Z,145.47
2018-11-05T05:05:33.819Z,144.87
2018-11-05T05:06:08.107Z,157.07
2018-11-05T05:06:42.254Z,154.65
2018-11-05T05:07:16.069Z,136.33
2018-11-05T05:07:50.162Z,145.97
2018-11-05T05:08:24.597Z,143.07
2018-11-05T05:08:58.693Z,143.20
2018-11-05T05:09:32.775Z,150.68
2018-11-05T05:10:08.291Z,141.50
2018-11-05T05:10:42.105Z,157.47
2018-11-05T05:11:16.106Z,153.67
2018-11-05T05:11:49.969Z,149.63
2018-11-05T05:12:24.103Z,143.07
2018-11-05T05:12:58.873Z,139.90
2018-11-05T05:13:32.700Z,132.90
2018-11-05T05:14:07.713Z,153.82
2018-11-05T05:14:41.921Z,145.23
2018-11-05T05:15:16.059Z,130.70
2018-11-05T05:15:50.200Z,135.40
2018-11-05T05:16:24.047Z,146.77
2018-11-05T05:16:58.346Z,157.52
2018-11-05T05:17:32.461Z,155.35
2018-11-05T05:18:06.891Z,149.72
2018-11-05T05:18:41.013Z,157.50
2018-11-05T05:19:15.475Z,156.72
2018-11-05T05:19:49.315Z,139.10
2018-11-05T05:20:23.121Z,145.67
2018-11-05T05:20:57.111Z,149.73
2018-11-05T05:21:31.193Z,158.25
2018-11-05T05:22:05.753Z,151.40
2018-11-05T05:22:40.030Z,137.10
2018-11-05T05:23:13.987Z,147.43
2018-11-05T05:23:48.073Z,155.05
2018-11-05T05:24:22.229Z,148.78
2018-11-05T05:24:56.368Z,153.05
2018-11-05T05:25:30.441Z,167.70
2018-11-05T05:26:04.983Z,160.00
2018-11-05T05:26:39.405Z,157.22
2018-11-05T05:27:13.623Z,150.97
2018-11-05T05:27:47.720Z,155.37
2018-11-05T05:28:21.856Z,151.97
2018-11-05T05:28:56.627Z,158.78
2018-11-05T05:29:30.730Z,152.87
2018-11-05T05:30:07.180Z,171.37
2018-11-05T05:30:40.993Z,152.60
2018-11-05T05:31:15.085Z,157.03
2018-11-05T05:31:48.924Z,162.70
2018-11-05T05:32:22.771Z,143.43
2018-11-05T05:32:56.646Z,155.13
2018-11-05T05:33:31.258Z,165.05
2018-11-05T05:34:06.150Z,145.62
2018-11-05T05:34:40.239Z,167.68
2018-11-05T05:35:14.549Z,148.20
2018-11-05T05:35:48.377Z,163.70
2018-11-05T05:36:22.809Z,165.45
2018-11-05T05:36:56.969Z,144.60
2018-11-05T05:37:31.458Z,150.53
2018-11-05T05:38:05.905Z,157.20
2018-11-05T05:38:39.787Z,155.67
2018-11-05T05:39:13.644Z,151.93
2018-11-05T05:39:47.781Z,163.03
2018-11-05T05:40:22.201Z,151.00
2018-11-05T05:40:56.363Z,162.55
2018-11-05T05:41:30.382Z,160.03
2018-11-05T05:42:04.919Z,149.42
2018-11-05T05:42:39.915Z,167.73
2018-11-05T05:43:14.021Z,170.90
2018-11-05T05:43:47.874Z,153.37
2018-11-05T05:44:21.971Z,167.22
2018-11-05T05:44:56.085Z,161.65
2018-11-05T05:45:29.917Z,145.63
2018-11-05T05:46:04.085Z,155.30
2018-11-05T05:46:38.179Z,162.60
2018-11-05T05:47:12.957Z,176.75
2018-11-05T05:47:47.074Z,183.55
2018-11-05T05:48:21.165Z,154.40
2018-11-05T05:48:55.291Z,153.93
2018-11-05T05:49:36.497Z,179.90
2018-11-05T05:50:13.917Z,165.68
2018-11-05T05:50:48.529Z,174.97
2018-11-05T05:51:22.581Z,165.43
2018-11-05T05:51:56.686Z,172.72
2018-11-05T05:52:30.885Z,172.20
2018-11-05T05:53:05.971Z,164.90
2018-11-05T05:53:40.380Z,170.15
2018-11-05T05:54:14.817Z,161.18
2018-11-05T05:54:48.645Z,155.93
2018-11-05T05:55:23.076Z,159.87
2018-11-05T05:55:57.495Z,172.80
2018-11-05T05:56:31.606Z,153.12
2018-11-05T05:57:05.795Z,165.12
2018-11-05T05:57:40.219Z,176.53
2018-11-05T05:58:15.149Z,167.22
2018-11-05T05:58:49.581Z,177.97
2018-11-05T05:59:24.073Z,175.78
2018-11-05T05:59:58.207Z,170.20
2018-11-05T06:00:32.777Z,161.20
2018-11-05T06:01:06.893Z,171.18
2018-11-05T06:01:40.977Z,174.07
2018-11-05T06:02:15.820Z,181.32
2018-11-05T06:02:49.919Z,175.95
2018-11-05T06:03:24.042Z,166.57
2018-11-05T06:03:58.496Z,167.47
2018-11-05T06:04:32.585Z,177.85
2018-11-05T06:05:07.487Z,178.37
2018-11-05T06:05:41.637Z,169.68
2018-11-05T06:06:15.915Z,159.32
2018-11-05T06:06:50.099Z,177.72
2018-11-05T06:07:24.277Z,177.20
2018-11-05T06:07:58.373Z,167.43
2018-11-05T06:08:32.517Z,164.70
2018-11-05T06:09:08.347Z,171.68
2018-11-05T06:09:42.445Z,160.22
2018-11-05T06:10:17.029Z,166.62
2018-11-05T06:10:51.463Z,165.25
2018-11-05T06:11:25.551Z,165.90
2018-11-05T06:11:59.669Z,177.07
2018-11-05T06:12:33.785Z,159.80
2018-11-05T06:13:07.873Z,177.82
2018-11-05T06:13:41.753Z,166.47
2018-11-05T06:14:15.862Z,181.40
2018-11-05T06:14:49.991Z,165.00
2018-11-05T06:15:24.731Z,181.93
2018-11-05T06:15:58.907Z,171.53
2018-11-05T06:16:33.116Z,167.22
2018-11-05T06:17:07.580Z,186.40
2018-11-05T06:17:41.457Z,181.13
2018-11-05T06:18:15.543Z,165.25
2018-11-05T06:18:49.649Z,164.00
2018-11-05T06:19:23.795Z,182.12
2018-11-05T06:19:58.593Z,178.62
2018-11-05T06:20:32.449Z,177.80
2018-11-05T06:21:06.875Z,163.57
2018-11-05T06:21:41.357Z,178.27
2018-11-05T06:22:15.643Z,172.00
2018-11-05T06:22:50.555Z,162.65
2018-11-05T06:23:24.722Z,189.07
2018-11-05T06:23:59.401Z,174.62
2018-11-05T06:24:34.166Z,178.18
2018-11-05T06:25:08.501Z,163.65
2018-11-05T06:25:43.035Z,166.43
2018-11-05T06:26:17.205Z,177.17
2018-11-05T06:26:51.699Z,163.70
2018-11-05T06:27:25.515Z,172.40
2018-11-05T06:27:59.630Z,167.20
2018-11-05T06:28:33.579Z,155.87
2018-11-05T06:29:07.606Z,163.03
2018-11-05T06:29:42.063Z,162.77
2018-11-05T06:30:19.100Z,158.97
2018-11-05T06:30:53.585Z,164.53
2018-11-05T06:31:27.691Z,165.15
2018-11-05T06:32:02.149Z,168.40
2018-11-05T06:32:37.022Z,171.93
2018-11-05T06:33:11.116Z,162.72
2018-11-05T06:33:45.312Z,167.00
2018-11-05T06:34:19.787Z,181.37
2018-11-05T06:34:54.234Z,165.50
2018-11-05T06:35:28.801Z,174.85
2018-11-05T06:36:03.377Z,164.47
2018-11-05T06:36:38.004Z,175.57
2018-11-05T06:37:12.084Z,181.55
2018-11-05T06:37:46.545Z,167.25
2018-11-05T06:38:20.626Z,159.80
2018-11-05T06:38:54.810Z,156.07
2018-11-05T06:39:28.945Z,173.97
2018-11-05T06:40:03.437Z,153.57
2018-11-05T06:40:37.613Z,163.50
2018-11-05T06:41:12.383Z,168.43
2018-11-05T06:41:46.727Z,168.25
2018-11-05T06:42:21.030Z,168.15
2018-11-05T06:42:55.534Z,180.67
2018-11-05T06:43:29.959Z,168.00
2018-11-05T06:44:04.367Z,162.60
2018-11-05T06:44:38.696Z,174.75
2018-11-05T06:45:15.193Z,182.03
2018-11-05T06:45:49.198Z,156.20
2018-11-05T06:46:23.386Z,173.17
2018-11-05T06:46:57.228Z,165.77
2018-11-05T06:47:31.695Z,164.13
2018-11-05T06:48:05.570Z,177.07
2018-11-05T06:48:40.069Z,168.70
2018-11-05T06:49:14.171Z,190.50
2018-11-05T06:49:48.057Z,166.10
2018-11-05T06:50:23.461Z,162.53
2018-11-05T06:50:57.298Z,164.37
2018-11-05T06:51:32.275Z,172.78
2018-11-05T06:52:06.397Z,170.17
2018-11-05T06:52:41.241Z,173.17
2018-11-05T06:53:15.522Z,174.53
2018-11-05T06:53:49.676Z,153.10
2018-11-05T06:54:23.513Z,168.93
2018-11-05T06:54:57.342Z,163.70
2018-11-05T06:55:31.179Z,173.40
2018-11-05T06:56:05.336Z,184.47
2018-11-05T06:56:39.197Z,162.67
2018-11-05T06:57:13.329Z,165.88
2018-11-05T06:57:47.606Z,169.67
2018-11-05T06:58:21.854Z,164.93
2018-11-05T06:58:55.957Z,169.75
2018-11-05T06:59:29.779Z,171.17
2018-11-05T07:00:05.165Z,169.45
2018-11-05T07:00:39.271Z,161.90
2018-11-05T07:01:13.373Z,160.93
2018-11-05T07:01:47.609Z,164.13
2018-11-05T07:02:21.906Z,172.75
2018-11-05T07:02:55.781Z,179.03
2018-11-05T07:03:29.615Z,161.47
2018-11-05T07:04:03.468Z,175.87
2018-11-05T07:04:37.465Z,173.33
2018-11-05T07:05:11.497Z,184.73
2018-11-05T07:05:45.322Z,158.67
2018-11-05T07:06:19.327Z,168.73
2018-11-05T07:06:53.841Z,157.27
2018-11-05T07:07:27.643Z,173.37
2018-11-05T07:08:01.737Z,177.97
2018-11-05T07:08:35.591Z,165.00
2018-11-05T07:09:11.109Z,187.32
2018-11-05T07:09:44.969Z,158.70
2018-11-05T07:10:19.427Z,163.33
2018-11-05T07:10:53.585Z,171.60
2018-11-05T07:11:27.983Z,167.83
2018-11-05T07:12:02.145Z,166.67
2018-11-05T07:12:36.643Z,175.17
2018-11-05T07:13:10.677Z,184.83
2018-11-05T07:13:44.470Z,169.27
2018-11-05T07:14:18.635Z,159.40
2018-11-05T07:14:52.628Z,159.63
2018-11-05T07:15:26.469Z,153.07
2018-11-05T07:16:00.302Z,166.07